sensor_id;sensor_type;location;lat;lon;timestamp;pressure;altitude;pressure_sealevel;temperature;humidity
55022;BME280;68328;35.990;-86.756;2023-04-01T00:00:08;98480.79;;;20.77;49.58
55022;BME280;68328;35.990;-86.756;2023-04-01T00:02:33;98480.85;;;19.48;52.13
55022;BME280;68328;35.990;-86.756;2023-04-01T00:04:57;98465.50;;;19.20;53.36
55022;BME280;68328;35.990;-86.756;2023-04-01T00:07:25;98463.20;;;19.98;51.45
55022;BME280;68328;35.990;-86.756;2023-04-01T00:09:50;98458.98;;;19.59;51.67
55022;BME280;68328;35.990;-86.756;2023-04-01T00:12:14;98469.54;;;19.66;52.44
55022;BME280;68328;35.990;-86.756;2023-04-01T00:14:39;98468.28;;;19.03;54.61
55022;BME280;68328;35.990;-86.756;2023-04-01T00:17:06;98463.46;;;18.99;54.87
55022;BME280;68328;35.990;-86.756;2023-04-01T00:19:30;98452.09;;;19.26;54.21
55022;BME280;68328;35.990;-86.756;2023-04-01T00:21:55;98450.89;;;19.82;52.74
55022;BME280;68328;35.990;-86.756;2023-04-01T00:24:21;98442.28;;;19.32;54.01
55022;BME280;68328;35.990;-86.756;2023-04-01T00:26:47;98458.40;;;19.19;55.04
55022;BME280;68328;35.990;-86.756;2023-04-01T00:29:12;98468.80;;;19.36;53.76
55022;BME280;68328;35.990;-86.756;2023-04-01T00:31:38;98461.07;;;19.48;54.75
55022;BME280;68328;35.990;-86.756;2023-04-01T00:34:04;98462.45;;;19.77;53.48
55022;BME280;68328;35.990;-86.756;2023-04-01T00:36:30;98467.45;;;19.52;53.88
55022;BME280;68328;35.990;-86.756;2023-04-01T00:38:55;98464.69;;;18.90;55.10
55022;BME280;68328;35.990;-86.756;2023-04-01T00:41:20;98473.68;;;19.38;53.03
55022;BME280;68328;35.990;-86.756;2023-04-01T00:43:48;98472.40;;;20.19;52.35
55022;BME280;68328;35.990;-86.756;2023-04-01T00:46:12;98462.33;;;19.85;53.04
55022;BME280;68328;35.990;-86.756;2023-04-01T00:48:38;98455.04;;;19.85;53.06
55022;BME280;68328;35.990;-86.756;2023-04-01T00:51:06;98465.58;;;19.86;53.10
55022;BME280;68328;35.990;-86.756;2023-04-01T00:53:28;98459.52;;;18.72;55.70
55022;BME280;68328;35.990;-86.756;2023-04-01T00:55:58;98457.99;;;19.39;54.23
55022;BME280;68328;35.990;-86.756;2023-04-01T00:58:23;98469.72;;;19.14;56.31
55022;BME280;68328;35.990;-86.756;2023-04-01T01:00:44;98478.97;;;19.13;56.39
55022;BME280;68328;35.990;-86.756;2023-04-01T01:03:10;98482.00;;;19.10;56.17
55022;BME280;68328;35.990;-86.756;2023-04-01T01:05:47;98448.30;;;20.02;53.12
55022;BME280;68328;35.990;-86.756;2023-04-01T01:08:03;98449.37;;;20.12;51.60
55022;BME280;68328;35.990;-86.756;2023-04-01T01:10:29;98429.86;;;19.37;54.88
55022;BME280;68328;35.990;-86.756;2023-04-01T01:12:55;98429.89;;;18.72;57.32
55022;BME280;68328;35.990;-86.756;2023-04-01T01:15:23;98444.55;;;18.71;57.43
55022;BME280;68328;35.990;-86.756;2023-04-01T01:17:51;98445.81;;;18.52;57.92
55022;BME280;68328;35.990;-86.756;2023-04-01T01:22:41;98435.95;;;18.31;58.24
55022;BME280;68328;35.990;-86.756;2023-04-01T01:25:11;98447.52;;;18.76;57.17
55022;BME280;68328;35.990;-86.756;2023-04-01T01:27:23;98446.74;;;18.44;58.64
55022;BME280;68328;35.990;-86.756;2023-04-01T01:30:10;98437.11;;;18.80;57.19
55022;BME280;68328;35.990;-86.756;2023-04-01T01:34:43;98428.73;;;18.71;58.64
55022;BME280;68328;35.990;-86.756;2023-04-01T01:37:09;98426.04;;;18.44;58.81
55022;BME280;68328;35.990;-86.756;2023-04-01T01:39:32;98431.40;;;18.97;57.44
55022;BME280;68328;35.990;-86.756;2023-04-01T01:41:57;98438.74;;;18.83;57.49
55022;BME280;68328;35.990;-86.756;2023-04-01T01:44:21;98428.07;;;18.97;56.83
55022;BME280;68328;35.990;-86.756;2023-04-01T01:46:48;98407.86;;;19.11;56.31
55022;BME280;68328;35.990;-86.756;2023-04-01T01:49:13;98412.90;;;18.63;58.18
55022;BME280;68328;35.990;-86.756;2023-04-01T01:51:37;98405.99;;;19.76;54.75
55022;BME280;68328;35.990;-86.756;2023-04-01T01:54:03;98413.09;;;18.54;59.27
55022;BME280;68328;35.990;-86.756;2023-04-01T01:56:28;98404.00;;;18.91;58.19
55022;BME280;68328;35.990;-86.756;2023-04-01T01:58:55;98399.28;;;18.88;57.64
55022;BME280;68328;35.990;-86.756;2023-04-01T02:01:21;98385.42;;;18.72;58.20
55022;BME280;68328;35.990;-86.756;2023-04-01T02:03:44;98394.39;;;20.12;54.12
55022;BME280;68328;35.990;-86.756;2023-04-01T02:06:11;98376.82;;;20.10;54.27
55022;BME280;68328;35.990;-86.756;2023-04-01T02:08:36;98383.10;;;19.44;56.55
55022;BME280;68328;35.990;-86.756;2023-04-01T02:11:01;98375.18;;;18.54;58.72
55022;BME280;68328;35.990;-86.756;2023-04-01T02:13:31;98358.29;;;19.23;57.06
55022;BME280;68328;35.990;-86.756;2023-04-01T02:15:50;98358.60;;;18.67;58.08
55022;BME280;68328;35.990;-86.756;2023-04-01T02:18:15;98359.21;;;18.95;58.02
55022;BME280;68328;35.990;-86.756;2023-04-01T02:20:40;98343.82;;;18.48;59.12
55022;BME280;68328;35.990;-86.756;2023-04-01T02:23:05;98332.88;;;18.44;59.42
55022;BME280;68328;35.990;-86.756;2023-04-01T02:25:34;98333.64;;;18.73;60.05
55022;BME280;68328;35.990;-86.756;2023-04-01T02:27:58;98326.58;;;18.82;59.89
55022;BME280;68328;35.990;-86.756;2023-04-01T02:30:23;98315.64;;;18.33;60.43
55022;BME280;68328;35.990;-86.756;2023-04-01T02:32:47;98305.73;;;19.00;57.88
55022;BME280;68328;35.990;-86.756;2023-04-01T02:35:14;98281.78;;;19.44;56.13
55022;BME280;68328;35.990;-86.756;2023-04-01T02:37:37;98283.39;;;19.67;55.80
55022;BME280;68328;35.990;-86.756;2023-04-01T02:40:05;98272.27;;;19.54;56.01
55022;BME280;68328;35.990;-86.756;2023-04-01T02:42:28;98248.45;;;19.19;57.12
55022;BME280;68328;35.990;-86.756;2023-04-01T02:44:55;98260.15;;;18.99;57.87
55022;BME280;68328;35.990;-86.756;2023-04-01T02:47:19;98267.49;;;18.71;59.23
55022;BME280;68328;35.990;-86.756;2023-04-01T02:49:46;98278.46;;;19.36;56.61
55022;BME280;68328;35.990;-86.756;2023-04-01T02:52:10;98267.77;;;18.80;58.42
55022;BME280;68328;35.990;-86.756;2023-04-01T02:54:35;98259.82;;;18.61;60.57
55022;BME280;68328;35.990;-86.756;2023-04-01T02:57:00;98261.98;;;18.60;60.62
55022;BME280;68328;35.990;-86.756;2023-04-01T02:59:26;98281.57;;;18.68;60.55
55022;BME280;68328;35.990;-86.756;2023-04-01T03:01:52;98292.11;;;19.43;56.83
55022;BME280;68328;35.990;-86.756;2023-04-01T03:04:17;98294.70;;;19.92;55.74
55022;BME280;68328;35.990;-86.756;2023-04-01T03:06:44;98237.75;;;18.97;58.79
55022;BME280;68328;35.990;-86.756;2023-04-01T03:09:08;98237.79;;;18.95;59.08
55022;BME280;68328;35.990;-86.756;2023-04-01T03:11:33;98255.57;;;19.45;58.08
55022;BME280;68328;35.990;-86.756;2023-04-01T03:13:59;98278.82;;;19.31;58.75
55022;BME280;68328;35.990;-86.756;2023-04-01T03:16:24;98243.11;;;19.16;57.61
55022;BME280;68328;35.990;-86.756;2023-04-01T03:18:49;98238.22;;;19.73;56.85
55022;BME280;68328;35.990;-86.756;2023-04-01T03:21:19;98255.30;;;19.58;56.91
55022;BME280;68328;35.990;-86.756;2023-04-01T03:23:40;98260.19;;;20.65;54.14
55022;BME280;68328;35.990;-86.756;2023-04-01T03:26:06;98291.02;;;19.98;56.02
55022;BME280;68328;35.990;-86.756;2023-04-01T03:28:32;98249.74;;;18.98;58.28
55022;BME280;68328;35.990;-86.756;2023-04-01T03:30:57;98266.86;;;18.86;59.31
55022;BME280;68328;35.990;-86.756;2023-04-01T03:33:23;98277.80;;;19.32;58.28
55022;BME280;68328;35.990;-86.756;2023-04-01T03:35:48;98279.85;;;19.64;56.47
55022;BME280;68328;35.990;-86.756;2023-04-01T03:38:14;98269.05;;;19.36;58.51
55022;BME280;68328;35.990;-86.756;2023-04-01T03:40:42;98250.00;;;20.40;55.29
55022;BME280;68328;35.990;-86.756;2023-04-01T03:43:05;98277.31;;;20.07;56.72
55022;BME280;68328;35.990;-86.756;2023-04-01T03:45:30;98276.59;;;19.46;58.09
55022;BME280;68328;35.990;-86.756;2023-04-01T03:47:56;98256.16;;;20.98;53.65
55022;BME280;68328;35.990;-86.756;2023-04-01T03:50:22;98230.69;;;20.11;57.15
55022;BME280;68328;35.990;-86.756;2023-04-01T03:52:47;98236.17;;;19.72;59.05
55022;BME280;68328;35.990;-86.756;2023-04-01T03:55:12;98236.82;;;19.83;58.97
55022;BME280;68328;35.990;-86.756;2023-04-01T03:57:38;98228.13;;;19.27;60.76
55022;BME280;68328;35.990;-86.756;2023-04-01T04:00:04;98217.53;;;20.13;57.55
55022;BME280;68328;35.990;-86.756;2023-04-01T04:02:29;98250.06;;;20.07;56.78
55022;BME280;68328;35.990;-86.756;2023-04-01T04:04:55;98252.09;;;19.86;58.03
55022;BME280;68328;35.990;-86.756;2023-04-01T04:07:21;98237.62;;;19.49;60.83
55022;BME280;68328;35.990;-86.756;2023-04-01T04:09:47;98251.25;;;19.02;65.67
55022;BME280;68328;35.990;-86.756;2023-04-01T04:12:12;98250.47;;;17.73;72.01
55022;BME280;68328;35.990;-86.756;2023-04-01T04:14:38;98234.69;;;19.89;67.05
55022;BME280;68328;35.990;-86.756;2023-04-01T04:17:03;98240.55;;;20.54;61.83
55022;BME280;68328;35.990;-86.756;2023-04-01T04:19:32;98221.20;;;19.40;64.49
55022;BME280;68328;35.990;-86.756;2023-04-01T04:21:55;98225.76;;;19.86;64.49
55022;BME280;68328;35.990;-86.756;2023-04-01T04:24:19;98239.75;;;18.68;65.19
55022;BME280;68328;35.990;-86.756;2023-04-01T04:26:45;98229.22;;;19.86;63.10
55022;BME280;68328;35.990;-86.756;2023-04-01T04:29:11;98215.56;;;20.74;59.23
55022;BME280;68328;35.990;-86.756;2023-04-01T04:31:35;98193.21;;;20.65;59.45
55022;BME280;68328;35.990;-86.756;2023-04-01T04:34:01;98199.67;;;20.91;57.58
55022;BME280;68328;35.990;-86.756;2023-04-01T04:36:27;98175.93;;;21.62;56.05
55022;BME280;68328;35.990;-86.756;2023-04-01T04:38:51;98160.23;;;19.20;60.58
55022;BME280;68328;35.990;-86.756;2023-04-01T04:41:18;98137.12;;;19.40;61.90
55022;BME280;68328;35.990;-86.756;2023-04-01T04:43:49;98149.43;;;18.61;64.43
55022;BME280;68328;35.990;-86.756;2023-04-01T04:46:10;98148.58;;;18.69;62.47
55022;BME280;68328;35.990;-86.756;2023-04-01T04:48:35;98161.15;;;19.31;60.28
55022;BME280;68328;35.990;-86.756;2023-04-01T04:51:00;98138.81;;;19.83;59.74
55022;BME280;68328;35.990;-86.756;2023-04-01T04:53:25;98139.91;;;19.28;60.96
55022;BME280;68328;35.990;-86.756;2023-04-01T04:55:51;98130.58;;;18.70;63.22
55022;BME280;68328;35.990;-86.756;2023-04-01T04:58:17;98161.12;;;19.57;60.54
55022;BME280;68328;35.990;-86.756;2023-04-01T05:00:43;98141.71;;;18.59;63.26
55022;BME280;68328;35.990;-86.756;2023-04-01T05:03:09;98126.32;;;18.81;62.55
55022;BME280;68328;35.990;-86.756;2023-04-01T05:05:33;98134.99;;;18.80;62.74
55022;BME280;68328;35.990;-86.756;2023-04-01T05:07:59;98153.78;;;18.76;63.47
55022;BME280;68328;35.990;-86.756;2023-04-01T05:10:24;98145.59;;;19.40;61.17
55022;BME280;68328;35.990;-86.756;2023-04-01T05:12:51;98154.22;;;19.45;61.44
55022;BME280;68328;35.990;-86.756;2023-04-01T05:15:15;98118.65;;;18.89;62.58
55022;BME280;68328;35.990;-86.756;2023-04-01T05:17:41;98132.36;;;19.71;60.65
55022;BME280;68328;35.990;-86.756;2023-04-01T05:20:07;98133.56;;;19.61;59.36
55022;BME280;68328;35.990;-86.756;2023-04-01T05:22:32;98169.41;;;19.22;60.50
55022;BME280;68328;35.990;-86.756;2023-04-01T05:24:58;98143.93;;;19.22;61.15
55022;BME280;68328;35.990;-86.756;2023-04-01T05:27:24;98148.83;;;19.02;61.18
55022;BME280;68328;35.990;-86.756;2023-04-01T05:29:49;98144.51;;;19.66;59.55
55022;BME280;68328;35.990;-86.756;2023-04-01T05:32:15;98154.31;;;19.50;59.79
55022;BME280;68328;35.990;-86.756;2023-04-01T05:34:40;98157.43;;;19.30;61.24
55022;BME280;68328;35.990;-86.756;2023-04-01T05:37:05;98152.94;;;20.30;56.97
55022;BME280;68328;35.990;-86.756;2023-04-01T05:39:31;98183.07;;;19.23;61.10
55022;BME280;68328;35.990;-86.756;2023-04-01T05:41:56;98196.17;;;20.17;59.43
55022;BME280;68328;35.990;-86.756;2023-04-01T05:44:22;98183.68;;;20.57;58.38
55022;BME280;68328;35.990;-86.756;2023-04-01T05:46:49;98185.96;;;20.47;57.45
55022;BME280;68328;35.990;-86.756;2023-04-01T05:49:13;98194.86;;;19.68;59.23
55022;BME280;68328;35.990;-86.756;2023-04-01T05:51:39;98183.34;;;19.74;60.07
55022;BME280;68328;35.990;-86.756;2023-04-01T05:54:05;98170.14;;;20.69;57.77
55022;BME280;68328;35.990;-86.756;2023-04-01T05:56:29;98190.39;;;19.73;63.77
55022;BME280;68328;35.990;-86.756;2023-04-01T05:58:55;98198.54;;;19.74;71.68
55022;BME280;68328;35.990;-86.756;2023-04-01T06:01:21;98192.62;;;20.07;76.64
55022;BME280;68328;35.990;-86.756;2023-04-01T06:03:48;98206.37;;;20.07;75.65
55022;BME280;68328;35.990;-86.756;2023-04-01T06:06:14;98213.61;;;20.35;76.30
55022;BME280;68328;35.990;-86.756;2023-04-01T06:08:37;98228.05;;;21.14;74.73
55022;BME280;68328;35.990;-86.756;2023-04-01T06:11:18;98307.64;;;20.31;82.21
55022;BME280;68328;35.990;-86.756;2023-04-01T06:13:41;98296.15;;;17.95;95.25
55022;BME280;68328;35.990;-86.756;2023-04-01T06:16:00;98289.71;;;17.96;98.23
55022;BME280;68328;35.990;-86.756;2023-04-01T06:18:40;98288.34;;;17.16;88.36
55022;BME280;68328;35.990;-86.756;2023-04-01T06:20:49;98303.93;;;18.07;90.50
55022;BME280;68328;35.990;-86.756;2023-04-01T06:23:28;98288.71;;;17.43;86.82
55022;BME280;68328;35.990;-86.756;2023-04-01T06:25:50;98300.04;;;16.83;85.51
55022;BME280;68328;35.990;-86.756;2023-04-01T06:30:34;98313.26;;;16.38;83.45
55022;BME280;68328;35.990;-86.756;2023-04-01T06:35:29;98303.58;;;16.46;79.22
55022;BME280;68328;35.990;-86.756;2023-04-01T06:40:22;98259.36;;;16.97;78.16
55022;BME280;68328;35.990;-86.756;2023-04-01T06:42:47;98262.70;;;17.08;74.39
55022;BME280;68328;35.990;-86.756;2023-04-01T06:45:14;98286.83;;;17.89;71.39
55022;BME280;68328;35.990;-86.756;2023-04-01T06:47:44;98304.55;;;17.05;75.16
55022;BME280;68328;35.990;-86.756;2023-04-01T06:49:58;98305.84;;;16.81;74.48
55022;BME280;68328;35.990;-86.756;2023-04-01T06:52:23;98292.33;;;17.27;73.47
55022;BME280;68328;35.990;-86.756;2023-04-01T06:54:46;98283.53;;;17.70;74.58
55022;BME280;68328;35.990;-86.756;2023-04-01T06:57:19;98289.50;;;17.21;73.94
55022;BME280;68328;35.990;-86.756;2023-04-01T06:59:35;98281.78;;;18.15;72.60
55022;BME280;68328;35.990;-86.756;2023-04-01T07:02:04;98293.01;;;17.62;71.49
55022;BME280;68328;35.990;-86.756;2023-04-01T07:04:29;98290.55;;;18.33;70.96
55022;BME280;68328;35.990;-86.756;2023-04-01T07:06:53;98274.37;;;18.86;69.50
55022;BME280;68328;35.990;-86.756;2023-04-01T07:09:21;98284.55;;;18.87;66.96
55022;BME280;68328;35.990;-86.756;2023-04-01T07:11:43;98278.96;;;18.66;70.08
55022;BME280;68328;35.990;-86.756;2023-04-01T07:14:13;98272.61;;;19.47;69.90
55022;BME280;68328;35.990;-86.756;2023-04-01T07:16:34;98262.94;;;19.32;67.77
55022;BME280;68328;35.990;-86.756;2023-04-01T07:19:02;98250.92;;;19.23;66.92
55022;BME280;68328;35.990;-86.756;2023-04-01T07:21:29;98254.11;;;19.98;67.73
55022;BME280;68328;35.990;-86.756;2023-04-01T07:23:49;98246.63;;;19.62;67.86
55022;BME280;68328;35.990;-86.756;2023-04-01T07:26:18;98242.44;;;19.65;67.77
55022;BME280;68328;35.990;-86.756;2023-04-01T07:28:40;98246.75;;;19.77;66.72
55022;BME280;68328;35.990;-86.756;2023-04-01T07:31:18;98246.17;;;18.67;68.75
55022;BME280;68328;35.990;-86.756;2023-04-01T07:33:36;98252.40;;;19.02;67.86
55022;BME280;68328;35.990;-86.756;2023-04-01T07:35:59;98252.45;;;19.03;66.93
55022;BME280;68328;35.990;-86.756;2023-04-01T07:38:30;98257.21;;;17.93;67.69
55022;BME280;68328;35.990;-86.756;2023-04-01T07:40:51;98251.38;;;18.98;66.93
55022;BME280;68328;35.990;-86.756;2023-04-01T07:43:30;98244.79;;;18.93;67.23
55022;BME280;68328;35.990;-86.756;2023-04-01T07:45:42;98248.99;;;19.41;67.00
55022;BME280;68328;35.990;-86.756;2023-04-01T07:48:17;98249.11;;;19.60;64.85
55022;BME280;68328;35.990;-86.756;2023-04-01T07:50:31;98232.77;;;19.48;63.42
55022;BME280;68328;35.990;-86.756;2023-04-01T07:53:04;98232.89;;;19.25;65.77
55022;BME280;68328;35.990;-86.756;2023-04-01T07:55:23;98239.24;;;17.81;66.05
55022;BME280;68328;35.990;-86.756;2023-04-01T07:57:51;98244.25;;;19.39;66.60
55022;BME280;68328;35.990;-86.756;2023-04-01T08:00:17;98254.88;;;18.45;68.77
55022;BME280;68328;35.990;-86.756;2023-04-01T08:05:14;98258.54;;;17.30;69.40
55022;BME280;68328;35.990;-86.756;2023-04-01T08:07:35;98261.08;;;18.35;68.89
55022;BME280;68328;35.990;-86.756;2023-04-01T08:09:55;98259.21;;;16.83;69.14
55022;BME280;68328;35.990;-86.756;2023-04-01T08:12:27;98261.09;;;19.02;65.77
55022;BME280;68328;35.990;-86.756;2023-04-01T08:14:53;98260.32;;;19.34;65.92
55022;BME280;68328;35.990;-86.756;2023-04-01T08:17:12;98262.09;;;19.58;63.52
55022;BME280;68328;35.990;-86.756;2023-04-01T08:19:47;98260.68;;;18.90;63.55
55022;BME280;68328;35.990;-86.756;2023-04-01T08:22:09;98256.96;;;19.53;64.65
55022;BME280;68328;35.990;-86.756;2023-04-01T08:24:33;98249.04;;;19.64;65.13
55022;BME280;68328;35.990;-86.756;2023-04-01T08:26:56;98246.49;;;19.68;64.48
55022;BME280;68328;35.990;-86.756;2023-04-01T08:29:19;98249.01;;;19.86;64.82
55022;BME280;68328;35.990;-86.756;2023-04-01T08:31:49;98249.50;;;19.62;63.14
55022;BME280;68328;35.990;-86.756;2023-04-01T08:34:14;98253.66;;;19.22;65.15
55022;BME280;68328;35.990;-86.756;2023-04-01T08:36:38;98243.02;;;20.39;62.95
55022;BME280;68328;35.990;-86.756;2023-04-01T08:39:04;98244.42;;;20.13;63.32
55022;BME280;68328;35.990;-86.756;2023-04-01T08:41:37;98236.01;;;19.57;61.39
55022;BME280;68328;35.990;-86.756;2023-04-01T08:44:06;98238.27;;;19.86;64.18
55022;BME280;68328;35.990;-86.756;2023-04-01T08:46:29;98241.30;;;20.13;62.28
55022;BME280;68328;35.990;-86.756;2023-04-01T08:51:16;98253.29;;;19.65;62.50
55022;BME280;68328;35.990;-86.756;2023-04-01T08:53:40;98251.69;;;20.03;62.66
55022;BME280;68328;35.990;-86.756;2023-04-01T08:56:05;98247.33;;;19.92;62.30
55022;BME280;68328;35.990;-86.756;2023-04-01T08:58:42;98243.43;;;20.08;60.80
55022;BME280;68328;35.990;-86.756;2023-04-01T09:00:50;98242.71;;;19.94;60.60
55022;BME280;68328;35.990;-86.756;2023-04-01T09:03:24;98246.36;;;19.03;62.47
55022;BME280;68328;35.990;-86.756;2023-04-01T09:08:13;98260.58;;;19.86;60.21
55022;BME280;68328;35.990;-86.756;2023-04-01T09:10:37;98264.07;;;19.76;61.38
55022;BME280;68328;35.990;-86.756;2023-04-01T09:15:31;98272.31;;;19.79;60.72
55022;BME280;68328;35.990;-86.756;2023-04-01T09:20:19;98282.42;;;18.14;62.47
55022;BME280;68328;35.990;-86.756;2023-04-01T09:27:28;98285.35;;;19.13;59.19
55022;BME280;68328;35.990;-86.756;2023-04-01T09:32:27;98279.37;;;19.73;58.78
55022;BME280;68328;35.990;-86.756;2023-04-01T09:34:52;98278.85;;;19.54;58.07
55022;BME280;68328;35.990;-86.756;2023-04-01T09:37:18;98283.23;;;18.87;58.88
55022;BME280;68328;35.990;-86.756;2023-04-01T09:39:37;98281.30;;;19.52;58.51
55022;BME280;68328;35.990;-86.756;2023-04-01T09:42:13;98281.49;;;19.99;57.37
55022;BME280;68328;35.990;-86.756;2023-04-01T09:44:32;98285.79;;;18.76;57.19
55022;BME280;68328;35.990;-86.756;2023-04-01T09:47:04;98281.94;;;19.49;54.94
55022;BME280;68328;35.990;-86.756;2023-04-01T09:49:32;98278.33;;;19.78;57.88
55022;BME280;68328;35.990;-86.756;2023-04-01T09:51:48;98276.84;;;19.69;55.45
55022;BME280;68328;35.990;-86.756;2023-04-01T09:54:19;98279.04;;;19.43;56.16
55022;BME280;68328;35.990;-86.756;2023-04-01T10:01:39;98297.32;;;18.89;57.13
55022;BME280;68328;35.990;-86.756;2023-04-01T10:11:18;98295.45;;;18.19;56.35
55022;BME280;68328;35.990;-86.756;2023-04-01T10:18:29;98299.40;;;18.92;54.89
55022;BME280;68328;35.990;-86.756;2023-04-01T10:20:56;98300.84;;;19.35;54.47
55022;BME280;68328;35.990;-86.756;2023-04-01T10:47:42;98304.60;;;18.18;51.94
55022;BME280;68328;35.990;-86.756;2023-04-01T10:54:46;98301.72;;;17.16;55.75
55022;BME280;68328;35.990;-86.756;2023-04-01T11:09:30;98309.34;;;18.02;50.99
55022;BME280;68328;35.990;-86.756;2023-04-01T11:16:43;98312.41;;;15.90;54.11
55022;BME280;68328;35.990;-86.756;2023-04-01T11:19:09;98309.38;;;17.40;52.36
55022;BME280;68328;35.990;-86.756;2023-04-01T11:23:55;98317.65;;;18.47;51.49
55022;BME280;68328;35.990;-86.756;2023-04-01T11:26:22;98317.24;;;16.63;52.35
55022;BME280;68328;35.990;-86.756;2023-04-01T11:31:13;98327.33;;;16.84;51.32
55022;BME280;68328;35.990;-86.756;2023-04-01T11:33:34;98322.95;;;17.25;51.89
55022;BME280;68328;35.990;-86.756;2023-04-01T11:36:05;98321.18;;;17.50;51.75
55022;BME280;68328;35.990;-86.756;2023-04-01T11:38:30;98320.40;;;16.45;51.69
55022;BME280;68328;35.990;-86.756;2023-04-01T11:40:51;98314.26;;;15.34;52.24
55022;BME280;68328;35.990;-86.756;2023-04-01T11:43:18;98310.28;;;16.22;52.73
55022;BME280;68328;35.990;-86.756;2023-04-01T11:45:38;98312.44;;;17.45;51.60
55022;BME280;68328;35.990;-86.756;2023-04-01T11:50:35;98315.36;;;16.92;51.45
55022;BME280;68328;35.990;-86.756;2023-04-01T11:53:04;98315.86;;;16.19;54.18
55022;BME280;68328;35.990;-86.756;2023-04-01T11:55:32;98316.96;;;15.91;53.81
55022;BME280;68328;35.990;-86.756;2023-04-01T11:58:02;98322.07;;;16.41;51.76
55022;BME280;68328;35.990;-86.756;2023-04-01T12:00:24;98328.86;;;17.09;50.50
55022;BME280;68328;35.990;-86.756;2023-04-01T12:02:41;98330.49;;;16.75;51.81
55022;BME280;68328;35.990;-86.756;2023-04-01T12:05:19;98331.91;;;16.12;51.86
55022;BME280;68328;35.990;-86.756;2023-04-01T12:09:56;98330.34;;;15.30;54.18
55022;BME280;68328;35.990;-86.756;2023-04-01T12:12:25;98333.51;;;15.75;53.84
55022;BME280;68328;35.990;-86.756;2023-04-01T12:14:47;98331.08;;;17.22;51.56
55022;BME280;68328;35.990;-86.756;2023-04-01T12:17:14;98328.82;;;15.79;54.48
55022;BME280;68328;35.990;-86.756;2023-04-01T12:19:41;98331.14;;;16.13;52.51
55022;BME280;68328;35.990;-86.756;2023-04-01T12:26:58;98333.60;;;17.17;51.81
55022;BME280;68328;35.990;-86.756;2023-04-01T12:31:46;98336.89;;;15.45;49.59
55022;BME280;68328;35.990;-86.756;2023-04-01T12:36:40;98338.06;;;16.90;48.95
55022;BME280;68328;35.990;-86.756;2023-04-01T12:41:27;98351.09;;;15.87;49.04
55022;BME280;68328;35.990;-86.756;2023-04-01T12:46:18;98352.32;;;17.52;48.63
55022;BME280;68328;35.990;-86.756;2023-04-01T12:51:17;98348.68;;;16.63;48.33
55022;BME280;68328;35.990;-86.756;2023-04-01T12:53:41;98352.25;;;17.12;46.75
55022;BME280;68328;35.990;-86.756;2023-04-01T12:55:53;98349.31;;;16.55;46.45
55022;BME280;68328;35.990;-86.756;2023-04-01T13:01:00;98345.70;;;16.24;46.69
55022;BME280;68328;35.990;-86.756;2023-04-01T13:03:24;98350.50;;;18.08;44.04
55022;BME280;68328;35.990;-86.756;2023-04-01T13:08:09;98354.05;;;16.44;44.41
55022;BME280;68328;35.990;-86.756;2023-04-01T13:13:07;98351.18;;;16.53;46.20
55022;BME280;68328;35.990;-86.756;2023-04-01T13:15:25;98356.37;;;17.21;43.21
55022;BME280;68328;35.990;-86.756;2023-04-01T13:17:49;98356.02;;;17.42;41.45
55022;BME280;68328;35.990;-86.756;2023-04-01T13:20:15;98373.17;;;17.04;40.67
55022;BME280;68328;35.990;-86.756;2023-04-01T13:22:45;98373.65;;;17.23;41.51
55022;BME280;68328;35.990;-86.756;2023-04-01T13:25:02;98369.55;;;17.10;40.10
55022;BME280;68328;35.990;-86.756;2023-04-01T13:27:29;98385.27;;;18.73;39.01
55022;BME280;68328;35.990;-86.756;2023-04-01T13:29:59;98386.70;;;17.90;36.06
55022;BME280;68328;35.990;-86.756;2023-04-01T13:32:25;98381.00;;;18.55;37.34
55022;BME280;68328;35.990;-86.756;2023-04-01T13:34:49;98385.42;;;18.76;36.45
55022;BME280;68328;35.990;-86.756;2023-04-01T13:37:15;98390.74;;;19.28;34.02
55022;BME280;68328;35.990;-86.756;2023-04-01T13:39:39;98406.88;;;19.12;32.37
55022;BME280;68328;35.990;-86.756;2023-04-01T13:42:06;98414.65;;;18.70;33.71
55022;BME280;68328;35.990;-86.756;2023-04-01T13:44:26;98401.97;;;17.65;34.00
55022;BME280;68328;35.990;-86.756;2023-04-01T13:49:24;98404.53;;;17.79;33.08
55022;BME280;68328;35.990;-86.756;2023-04-01T13:51:46;98398.90;;;18.53;34.64
55022;BME280;68328;35.990;-86.756;2023-04-01T13:54:14;98403.67;;;18.34;30.74
55022;BME280;68328;35.990;-86.756;2023-04-01T13:56:37;98403.02;;;17.88;32.27
55022;BME280;68328;35.990;-86.756;2023-04-01T13:59:05;98409.27;;;19.23;30.71
55022;BME280;68328;35.990;-86.756;2023-04-01T14:01:25;98405.36;;;18.36;30.22
55022;BME280;68328;35.990;-86.756;2023-04-01T14:06:17;98421.70;;;19.13;29.64
55022;BME280;68328;35.990;-86.756;2023-04-01T14:08:45;98408.07;;;18.18;26.88
55022;BME280;68328;35.990;-86.756;2023-04-01T14:11:09;98404.62;;;17.95;31.33
55022;BME280;68328;35.990;-86.756;2023-04-01T14:13:34;98386.99;;;19.31;28.95
55022;BME280;68328;35.990;-86.756;2023-04-01T14:16:04;98391.45;;;19.09;26.18
55022;BME280;68328;35.990;-86.756;2023-04-01T14:20:42;98393.63;;;18.82;25.65
55022;BME280;68328;35.990;-86.756;2023-04-01T14:23:28;98388.64;;;18.60;23.53
55022;BME280;68328;35.990;-86.756;2023-04-01T14:25:44;98392.77;;;17.69;24.61
55022;BME280;68328;35.990;-86.756;2023-04-01T14:32:54;98388.38;;;19.79;24.58
55022;BME280;68328;35.990;-86.756;2023-04-01T14:35:21;98379.00;;;19.39;24.99
55022;BME280;68328;35.990;-86.756;2023-04-01T14:37:53;98381.62;;;19.69;24.82
55022;BME280;68328;35.990;-86.756;2023-04-01T14:40:20;98376.11;;;19.97;21.47
55022;BME280;68328;35.990;-86.756;2023-04-01T14:42:38;98374.36;;;18.51;22.62
55022;BME280;68328;35.990;-86.756;2023-04-01T14:45:08;98379.68;;;18.87;22.97
55022;BME280;68328;35.990;-86.756;2023-04-01T14:49:47;98390.63;;;19.33;22.37
55022;BME280;68328;35.990;-86.756;2023-04-01T14:52:16;98384.69;;;20.35;23.09